sensor_id;sensor_type;location;lat;lon;timestamp;pressure;altitude;pressure_sealevel;temperature;humidity
21900;BME280;11114;50.658;12.704;2023-06-01T00:01:59;96420.06;;;15.99;49.14
21900;BME280;11114;50.658;12.704;2023-06-01T00:04:45;96420.31;;;16.04;48.98
21900;BME280;11114;50.658;12.704;2023-06-01T00:07:34;96428.13;;;15.97;48.87
21900;BME280;11114;50.658;12.704;2023-06-01T00:10:20;96411.09;;;15.93;48.94
21900;BME280;11114;50.658;12.704;2023-06-01T00:13:07;96417.34;;;15.92;48.93
21900;BME280;11114;50.658;12.704;2023-06-01T00:15:53;96418.53;;;15.90;48.96
21900;BME280;11114;50.658;12.704;2023-06-01T00:18:40;96418.44;;;15.83;49.13
21900;BME280;11114;50.658;12.704;2023-06-01T00:21:27;96414.94;;;15.76;49.14
21900;BME280;11114;50.658;12.704;2023-06-01T00:24:18;96415.19;;;15.67;49.39
21900;BME280;11114;50.658;12.704;2023-06-01T00:27:04;96406.59;;;15.59;49.88
21900;BME280;11114;50.658;12.704;2023-06-01T00:29:51;96403.06;;;15.52;49.89
21900;BME280;11114;50.658;12.704;2023-06-01T00:32:38;96404.69;;;15.53;50.13
21900;BME280;11114;50.658;12.704;2023-06-01T00:35:24;96399.44;;;15.38;50.23
21900;BME280;11114;50.658;12.704;2023-06-01T00:38:11;96409.13;;;15.38;50.48
21900;BME280;11114;50.658;12.704;2023-06-01T00:40:59;96408.97;;;15.39;50.38
21900;BME280;11114;50.658;12.704;2023-06-01T00:43:46;96402.84;;;15.24;50.43
21900;BME280;11114;50.658;12.704;2023-06-01T00:46:33;96399.88;;;15.27;50.55
21900;BME280;11114;50.658;12.704;2023-06-01T00:49:20;96399.75;;;15.21;50.49
21900;BME280;11114;50.658;12.704;2023-06-01T00:52:07;96391.53;;;15.24;50.58
21900;BME280;11114;50.658;12.704;2023-06-01T00:54:55;96389.72;;;15.39;50.14
21900;BME280;11114;50.658;12.704;2023-06-01T00:57:45;96386.97;;;15.47;50.19
21900;BME280;11114;50.658;12.704;2023-06-01T01:00:31;96391.53;;;15.53;49.78
21900;BME280;11114;50.658;12.704;2023-06-01T01:03:18;96398.25;;;15.41;49.89
21900;BME280;11114;50.658;12.704;2023-06-01T01:06:39;96389.50;;;15.11;50.90
21900;BME280;11114;50.658;12.704;2023-06-01T01:09:36;96393.31;;;15.09;50.66
21900;BME280;11114;50.658;12.704;2023-06-01T01:12:28;96394.22;;;15.16;50.43
21900;BME280;11114;50.658;12.704;2023-06-01T01:15:21;96388.78;;;15.17;51.07
21900;BME280;11114;50.658;12.704;2023-06-01T01:18:16;96394.16;;;15.24;50.17
21900;BME280;11114;50.658;12.704;2023-06-01T01:21:05;96388.22;;;15.07;50.38
21900;BME280;11114;50.658;12.704;2023-06-01T01:24:31;96386.44;;;14.71;52.17
21900;BME280;11114;50.658;12.704;2023-06-01T01:30:11;96383.09;;;14.77;51.29
21900;BME280;11114;50.658;12.704;2023-06-01T01:32:59;96384.00;;;14.84;51.11
21900;BME280;11114;50.658;12.704;2023-06-01T01:35:48;96388.56;;;14.90;51.00
21900;BME280;11114;50.658;12.704;2023-06-01T01:38:36;96395.63;;;14.89;51.09
21900;BME280;11114;50.658;12.704;2023-06-01T01:41:24;96393.19;;;14.88;51.06
21900;BME280;11114;50.658;12.704;2023-06-01T01:44:12;96392.94;;;14.75;51.39
21900;BME280;11114;50.658;12.704;2023-06-01T01:49:59;96390.53;;;14.51;52.20
21900;BME280;11114;50.658;12.704;2023-06-01T01:52:51;96389.53;;;14.52;51.83
21900;BME280;11114;50.658;12.704;2023-06-01T01:55:39;96384.69;;;14.64;51.61
21900;BME280;11114;50.658;12.704;2023-06-01T01:58:26;96379.00;;;14.75;51.39
21900;BME280;11114;50.658;12.704;2023-06-01T02:01:13;96371.22;;;14.81;51.22
21900;BME280;11114;50.658;12.704;2023-06-01T02:04:04;96364.25;;;14.88;51.21
21900;BME280;11114;50.658;12.704;2023-06-01T02:06:54;96368.34;;;14.90;50.90
21900;BME280;11114;50.658;12.704;2023-06-01T02:09:41;96366.34;;;14.92;50.92
21900;BME280;11114;50.658;12.704;2023-06-01T02:12:30;96369.88;;;14.85;50.99
21900;BME280;11114;50.658;12.704;2023-06-01T02:15:16;96363.63;;;14.86;50.86
21900;BME280;11114;50.658;12.704;2023-06-01T02:18:03;96358.81;;;14.89;50.81
21900;BME280;11114;50.658;12.704;2023-06-01T02:20:50;96356.81;;;14.91;50.94
21900;BME280;11114;50.658;12.704;2023-06-01T02:23:37;96362.53;;;14.95;50.67
21900;BME280;11114;50.658;12.704;2023-06-01T02:26:26;96360.91;;;14.94;50.68
21900;BME280;11114;50.658;12.704;2023-06-01T02:29:12;96353.03;;;14.94;50.76
21900;BME280;11114;50.658;12.704;2023-06-01T02:31:58;96351.13;;;14.88;50.80
21900;BME280;11114;50.658;12.704;2023-06-01T02:34:45;96349.66;;;14.71;51.14
21900;BME280;11114;50.658;12.704;2023-06-01T02:37:31;96350.00;;;14.68;51.43
21900;BME280;11114;50.658;12.704;2023-06-01T02:40:18;96351.81;;;14.68;51.36
21900;BME280;11114;50.658;12.704;2023-06-01T02:43:06;96352.81;;;14.67;51.49
21900;BME280;11114;50.658;12.704;2023-06-01T02:45:52;96348.53;;;14.66;51.36
21900;BME280;11114;50.658;12.704;2023-06-01T02:48:39;96351.81;;;14.68;51.48
21900;BME280;11114;50.658;12.704;2023-06-01T02:51:26;96348.66;;;14.72;51.24
21900;BME280;11114;50.658;12.704;2023-06-01T02:54:24;96351.09;;;14.74;51.03
21900;BME280;11114;50.658;12.704;2023-06-01T02:57:11;96344.66;;;14.76;51.14
21900;BME280;11114;50.658;12.704;2023-06-01T03:00:03;96344.28;;;14.65;51.56
21900;BME280;11114;50.658;12.704;2023-06-01T03:02:50;96342.97;;;14.46;52.21
21900;BME280;11114;50.658;12.704;2023-06-01T03:05:39;96345.91;;;14.29;52.64
21900;BME280;11114;50.658;12.704;2023-06-01T03:09:01;96341.56;;;14.13;53.05
21900;BME280;11114;50.658;12.704;2023-06-01T03:12:10;96342.06;;;14.09;53.01
21900;BME280;11114;50.658;12.704;2023-06-01T03:14:58;96344.50;;;14.18;52.72
21900;BME280;11114;50.658;12.704;2023-06-01T03:17:45;96336.22;;;14.29;52.47
21900;BME280;11114;50.658;12.704;2023-06-01T03:20:32;96341.09;;;14.32;52.66
21900;BME280;11114;50.658;12.704;2023-06-01T03:23:19;96341.09;;;14.32;52.55
21900;BME280;11114;50.658;12.704;2023-06-01T03:26:06;96337.81;;;14.30;52.43
21900;BME280;11114;50.658;12.704;2023-06-01T03:28:53;96345.25;;;14.27;52.91
21900;BME280;11114;50.658;12.704;2023-06-01T03:31:39;96337.66;;;14.09;52.87
21900;BME280;11114;50.658;12.704;2023-06-01T03:34:26;96332.91;;;13.83;53.62
21900;BME280;11114;50.658;12.704;2023-06-01T03:37:13;96335.31;;;13.62;54.07
21900;BME280;11114;50.658;12.704;2023-06-01T03:40:00;96338.38;;;13.73;54.13
21900;BME280;11114;50.658;12.704;2023-06-01T03:42:50;96344.56;;;13.80;54.28
21900;BME280;11114;50.658;12.704;2023-06-01T03:45:38;96349.38;;;13.99;53.93
21900;BME280;11114;50.658;12.704;2023-06-01T03:48:25;96338.31;;;14.11;53.47
21900;BME280;11114;50.658;12.704;2023-06-01T03:51:11;96344.06;;;14.07;53.55
21900;BME280;11114;50.658;12.704;2023-06-01T03:53:58;96340.47;;;14.00;53.88
21900;BME280;11114;50.658;12.704;2023-06-01T03:56:46;96344.13;;;13.99;53.71
21900;BME280;11114;50.658;12.704;2023-06-01T03:59:33;96346.22;;;14.03;53.84
21900;BME280;11114;50.658;12.704;2023-06-01T04:02:19;96345.22;;;14.12;53.74
21900;BME280;11114;50.658;12.704;2023-06-01T04:05:09;96337.91;;;14.22;53.75
21900;BME280;11114;50.658;12.704;2023-06-01T04:08:00;96336.38;;;14.28;54.66
21900;BME280;11114;50.658;12.704;2023-06-01T04:10:47;96334.69;;;14.35;53.36
21900;BME280;11114;50.658;12.704;2023-06-01T04:13:33;96343.50;;;14.42;53.62
21900;BME280;11114;50.658;12.704;2023-06-01T04:16:20;96346.19;;;14.34;53.73
21900;BME280;11114;50.658;12.704;2023-06-01T04:19:06;96339.94;;;14.35;54.14
21900;BME280;11114;50.658;12.704;2023-06-01T04:21:53;96343.09;;;14.30;54.20
21900;BME280;11114;50.658;12.704;2023-06-01T04:24:39;96344.78;;;14.23;54.60
21900;BME280;11114;50.658;12.704;2023-06-01T04:27:26;96345.84;;;14.14;54.77
21900;BME280;11114;50.658;12.704;2023-06-01T04:30:14;96347.41;;;14.23;54.72
21900;BME280;11114;50.658;12.704;2023-06-01T04:33:02;96348.97;;;14.32;54.58
21900;BME280;11114;50.658;12.704;2023-06-01T04:35:52;96349.28;;;14.37;54.67
21900;BME280;11114;50.658;12.704;2023-06-01T04:38:42;96346.00;;;14.35;54.79
21900;BME280;11114;50.658;12.704;2023-06-01T04:41:29;96350.22;;;14.44;54.75
21900;BME280;11114;50.658;12.704;2023-06-01T04:44:21;96343.56;;;14.56;54.33
21900;BME280;11114;50.658;12.704;2023-06-01T04:47:08;96342.38;;;14.59;54.73
21900;BME280;11114;50.658;12.704;2023-06-01T04:49:56;96343.75;;;14.69;54.72
21900;BME280;11114;50.658;12.704;2023-06-01T04:52:43;96345.84;;;14.74;54.91
21900;BME280;11114;50.658;12.704;2023-06-01T04:55:30;96351.00;;;14.81;54.99
21900;BME280;11114;50.658;12.704;2023-06-01T04:58:18;96351.75;;;14.90;54.82
21900;BME280;11114;50.658;12.704;2023-06-01T05:01:04;96349.69;;;15.00;54.84
21900;BME280;11114;50.658;12.704;2023-06-01T05:03:53;96345.69;;;15.04;54.84
21900;BME280;11114;50.658;12.704;2023-06-01T05:06:44;96341.88;;;15.06;54.74
21900;BME280;11114;50.658;12.704;2023-06-01T05:09:30;96343.06;;;15.04;54.83
21900;BME280;11114;50.658;12.704;2023-06-01T05:12:17;96353.22;;;15.07;55.26
21900;BME280;11114;50.658;12.704;2023-06-01T05:15:08;96354.03;;;15.07;54.90
21900;BME280;11114;50.658;12.704;2023-06-01T05:17:55;96354.22;;;15.20;54.44
21900;BME280;11114;50.658;12.704;2023-06-01T05:20:43;96346.09;;;15.30;54.44
21900;BME280;11114;50.658;12.704;2023-06-01T05:23:29;96347.91;;;15.29;54.56
21900;BME280;11114;50.658;12.704;2023-06-01T05:26:16;96353.72;;;15.25;54.45
21900;BME280;11114;50.658;12.704;2023-06-01T05:29:03;96335.19;;;15.18;54.96
21900;BME280;11114;50.658;12.704;2023-06-01T05:31:50;96338.00;;;15.17;55.03
21900;BME280;11114;50.658;12.704;2023-06-01T05:34:37;96344.91;;;15.18;54.91
21900;BME280;11114;50.658;12.704;2023-06-01T05:37:23;96348.06;;;15.28;55.15
21900;BME280;11114;50.658;12.704;2023-06-01T05:40:11;96333.81;;;15.37;54.83
21900;BME280;11114;50.658;12.704;2023-06-01T05:42:57;96344.19;;;15.53;54.88
21900;BME280;11114;50.658;12.704;2023-06-01T05:45:43;96342.16;;;15.55;54.71
21900;BME280;11114;50.658;12.704;2023-06-01T05:48:31;96338.97;;;15.45;54.83
21900;BME280;11114;50.658;12.704;2023-06-01T05:51:18;96344.53;;;15.50;54.92
21900;BME280;11114;50.658;12.704;2023-06-01T05:54:04;96338.81;;;15.61;54.33
21900;BME280;11114;50.658;12.704;2023-06-01T05:56:51;96346.31;;;15.63;54.69
21900;BME280;11114;50.658;12.704;2023-06-01T05:59:39;96344.69;;;15.63;54.53
21900;BME280;11114;50.658;12.704;2023-06-01T06:02:25;96337.25;;;15.66;54.31
21900;BME280;11114;50.658;12.704;2023-06-01T06:05:12;96350.63;;;15.85;54.37
21900;BME280;11114;50.658;12.704;2023-06-01T06:07:59;96345.59;;;16.05;53.98
21900;BME280;11114;50.658;12.704;2023-06-01T06:10:45;96340.34;;;16.26;54.25
21900;BME280;11114;50.658;12.704;2023-06-01T06:13:32;96336.50;;;16.28;54.01
21900;BME280;11114;50.658;12.704;2023-06-01T06:16:18;96331.00;;;16.44;53.66
21900;BME280;11114;50.658;12.704;2023-06-01T06:19:05;96327.09;;;16.61;53.50
21900;BME280;11114;50.658;12.704;2023-06-01T06:21:51;96330.00;;;16.66;53.68
21900;BME280;11114;50.658;12.704;2023-06-01T06:24:38;96329.78;;;16.67;54.01
21900;BME280;11114;50.658;12.704;2023-06-01T06:27:24;96334.25;;;16.67;53.61
21900;BME280;11114;50.658;12.704;2023-06-01T06:30:12;96327.50;;;16.85;53.46
21900;BME280;11114;50.658;12.704;2023-06-01T06:32:58;96329.03;;;17.01;52.83
21900;BME280;11114;50.658;12.704;2023-06-01T06:35:45;96322.13;;;17.00;52.71
21900;BME280;11114;50.658;12.704;2023-06-01T06:38:32;96325.88;;;17.18;52.74
21900;BME280;11114;50.658;12.704;2023-06-01T06:41:19;96328.03;;;17.35;52.61
21900;BME280;11114;50.658;12.704;2023-06-01T06:44:07;96330.56;;;17.50;52.20
21900;BME280;11114;50.658;12.704;2023-06-01T06:46:54;96320.94;;;17.83;52.25
21900;BME280;11114;50.658;12.704;2023-06-01T06:49:42;96330.16;;;18.19;51.91
21900;BME280;11114;50.658;12.704;2023-06-01T06:52:28;96322.53;;;18.50;51.66
21900;BME280;11114;50.658;12.704;2023-06-01T06:55:14;96325.19;;;18.50;51.29
21900;BME280;11114;50.658;12.704;2023-06-01T06:58:01;96332.69;;;18.85;51.33
21900;BME280;11114;50.658;12.704;2023-06-01T07:00:48;96328.41;;;19.23;50.59
21900;BME280;11114;50.658;12.704;2023-06-01T07:03:34;96324.19;;;19.66;50.29
21900;BME280;11114;50.658;12.704;2023-06-01T07:06:20;96318.94;;;20.09;49.41
21900;BME280;11114;50.658;12.704;2023-06-01T07:09:07;96319.69;;;20.16;48.69
21900;BME280;11114;50.658;12.704;2023-06-01T07:11:55;96309.03;;;20.54;48.50
21900;BME280;11114;50.658;12.704;2023-06-01T07:14:41;96309.78;;;20.91;47.95
21900;BME280;11114;50.658;12.704;2023-06-01T07:17:28;96304.16;;;21.24;46.38
21900;BME280;11114;50.658;12.704;2023-06-01T07:20:14;96315.81;;;21.23;46.15
21900;BME280;11114;50.658;12.704;2023-06-01T07:23:02;96299.97;;;21.52;45.69
21900;BME280;11114;50.658;12.704;2023-06-01T07:25:48;96297.00;;;21.42;45.76
21900;BME280;11114;50.658;12.704;2023-06-01T07:28:34;96290.56;;;21.74;45.85
21900;BME280;11114;50.658;12.704;2023-06-01T07:31:21;96286.50;;;21.53;44.18
21900;BME280;11114;50.658;12.704;2023-06-01T07:34:07;96298.06;;;21.23;45.41
21900;BME280;11114;50.658;12.704;2023-06-01T07:36:54;96295.13;;;21.49;45.66
21900;BME280;11114;50.658;12.704;2023-06-01T07:40:00;96288.75;;;21.86;44.93
21900;BME280;11114;50.658;12.704;2023-06-01T07:42:47;96285.38;;;22.08;43.52
21900;BME280;11114;50.658;12.704;2023-06-01T07:45:33;96289.94;;;22.19;43.73
21900;BME280;11114;50.658;12.704;2023-06-01T07:48:18;96279.03;;;22.38;43.67
21900;BME280;11114;50.658;12.704;2023-06-01T07:51:06;96285.81;;;22.87;43.18
21900;BME280;11114;50.658;12.704;2023-06-01T07:53:53;96277.88;;;23.21;42.99
21900;BME280;11114;50.658;12.704;2023-06-01T07:56:43;96275.88;;;23.51;42.42
21900;BME280;11114;50.658;12.704;2023-06-01T07:59:31;96276.56;;;23.97;42.62
21900;BME280;11114;50.658;12.704;2023-06-01T08:02:17;96270.53;;;24.29;40.95
21900;BME280;11114;50.658;12.704;2023-06-01T08:05:04;96275.75;;;24.52;40.14
21900;BME280;11114;50.658;12.704;2023-06-01T08:07:51;96275.13;;;24.78;40.55
21900;BME280;11114;50.658;12.704;2023-06-01T08:10:39;96268.72;;;25.12;39.39
21900;BME280;11114;50.658;12.704;2023-06-01T08:13:26;96265.00;;;25.51;39.96
21900;BME280;11114;50.658;12.704;2023-06-01T08:16:12;96270.88;;;25.90;39.06
21900;BME280;11114;50.658;12.704;2023-06-01T08:18:59;96278.28;;;26.31;37.67
21900;BME280;11114;50.658;12.704;2023-06-01T08:21:45;96272.25;;;26.67;36.58
21900;BME280;11114;50.658;12.704;2023-06-01T08:24:31;96272.38;;;26.82;35.27
21900;BME280;11114;50.658;12.704;2023-06-01T08:27:23;96268.16;;;26.91;36.96
21900;BME280;11114;50.658;12.704;2023-06-01T08:30:11;96264.53;;;27.07;37.32
21900;BME280;11114;50.658;12.704;2023-06-01T08:32:57;96264.75;;;27.37;36.38
21900;BME280;11114;50.658;12.704;2023-06-01T08:35:44;96259.88;;;27.34;34.26
21900;BME280;11114;50.658;12.704;2023-06-01T08:38:30;96258.94;;;27.54;34.97
21900;BME280;11114;50.658;12.704;2023-06-01T08:44:10;96258.91;;;27.49;34.63
21900;BME280;11114;50.658;12.704;2023-06-01T08:46:58;96254.75;;;27.73;35.47
21900;BME280;11114;50.658;12.704;2023-06-01T08:49:46;96252.72;;;28.05;34.03
21900;BME280;11114;50.658;12.704;2023-06-01T08:52:34;96249.69;;;27.82;34.01
21900;BME280;11114;50.658;12.704;2023-06-01T08:55:21;96247.34;;;28.00;34.69
21900;BME280;11114;50.658;12.704;2023-06-01T08:58:09;96241.56;;;28.33;33.63
21900;BME280;11114;50.658;12.704;2023-06-01T09:00:56;96244.13;;;28.03;34.47
21900;BME280;11114;50.658;12.704;2023-06-01T09:03:44;96244.78;;;28.40;34.53
21900;BME280;11114;50.658;12.704;2023-06-01T09:06:32;96246.41;;;28.51;33.75
21900;BME280;11114;50.658;12.704;2023-06-01T09:09:19;96239.41;;;28.40;34.39
21900;BME280;11114;50.658;12.704;2023-06-01T09:12:23;96238.41;;;28.86;34.04
21900;BME280;11114;50.658;12.704;2023-06-01T09:18:08;96236.19;;;29.37;32.49
21900;BME280;11114;50.658;12.704;2023-06-01T09:21:15;96240.50;;;28.79;32.72
21900;BME280;11114;50.658;12.704;2023-06-01T09:24:20;96238.38;;;28.81;33.68
21900;BME280;11114;50.658;12.704;2023-06-01T09:27:08;96228.16;;;29.03;33.30
21900;BME280;11114;50.658;12.704;2023-06-01T09:29:58;96232.41;;;29.28;33.34
21900;BME280;11114;50.658;12.704;2023-06-01T09:32:48;96229.97;;;29.47;32.97
21900;BME280;11114;50.658;12.704;2023-06-01T09:35:43;96224.00;;;29.70;31.93
21900;BME280;11114;50.658;12.704;2023-06-01T09:38:30;96222.53;;;29.97;32.23
21900;BME280;11114;50.658;12.704;2023-06-01T09:41:18;96221.56;;;30.26;32.22
21900;BME280;11114;50.658;12.704;2023-06-01T09:44:07;96222.81;;;30.39;31.48
21900;BME280;11114;50.658;12.704;2023-06-01T09:46:59;96218.22;;;30.49;30.47
21900;BME280;11114;50.658;12.704;2023-06-01T09:49:50;96220.50;;;30.66;30.33
21900;BME280;11114;50.658;12.704;2023-06-01T09:52:38;96209.84;;;30.84;29.76
21900;BME280;11114;50.658;12.704;2023-06-01T09:55:24;96213.03;;;30.86;29.03
21900;BME280;11114;50.658;12.704;2023-06-01T09:58:20;96211.94;;;30.92;28.90
21900;BME280;11114;50.658;12.704;2023-06-01T10:01:07;96209.00;;;30.55;28.83
21900;BME280;11114;50.658;12.704;2023-06-01T10:03:55;96207.97;;;30.03;27.74
21900;BME280;11114;50.658;12.704;2023-06-01T10:06:43;96204.78;;;29.91;28.87
21900;BME280;11114;50.658;12.704;2023-06-01T10:09:31;96199.84;;;30.51;28.30
21900;BME280;11114;50.658;12.704;2023-06-01T10:12:17;96196.50;;;30.97;28.42
21900;BME280;11114;50.658;12.704;2023-06-01T10:15:04;96206.53;;;30.92;28.53
21900;BME280;11114;50.658;12.704;2023-06-01T10:18:11;96200.56;;;30.95;27.12
21900;BME280;11114;50.658;12.704;2023-06-01T10:20:57;96201.97;;;30.16;28.31
21900;BME280;11114;50.658;12.704;2023-06-01T10:23:44;96204.13;;;30.14;29.00
21900;BME280;11114;50.658;12.704;2023-06-01T10:26:33;96197.31;;;30.26;28.15
21900;BME280;11114;50.658;12.704;2023-06-01T10:29:23;96201.22;;;30.49;29.09
21900;BME280;11114;50.658;12.704;2023-06-01T10:32:47;96196.56;;;30.59;26.55
21900;BME280;11114;50.658;12.704;2023-06-01T10:35:51;96198.56;;;30.01;28.42
21900;BME280;11114;50.658;12.704;2023-06-01T10:38:37;96190.50;;;29.91;28.34
21900;BME280;11114;50.658;12.704;2023-06-01T10:41:29;96188.72;;;29.71;30.46
21900;BME280;11114;50.658;12.704;2023-06-01T10:50:14;96183.69;;;29.50;31.27
21900;BME280;11114;50.658;12.704;2023-06-01T10:53:28;96186.50;;;29.83;28.39
21900;BME280;11114;50.658;12.704;2023-06-01T10:56:25;96174.91;;;29.93;29.76
21900;BME280;11114;50.658;12.704;2023-06-01T10:59:13;96180.84;;;29.80;29.65
21900;BME280;11114;50.658;12.704;2023-06-01T11:02:06;96182.16;;;29.87;30.41
21900;BME280;11114;50.658;12.704;2023-06-01T11:04:53;96187.28;;;29.94;29.62
21900;BME280;11114;50.658;12.704;2023-06-01T11:07:39;96174.19;;;30.20;30.26
21900;BME280;11114;50.658;12.704;2023-06-01T11:13:40;96173.81;;;29.89;28.34
21900;BME280;11114;50.658;12.704;2023-06-01T11:16:28;96173.34;;;29.72;28.95
21900;BME280;11114;50.658;12.704;2023-06-01T11:19:20;96160.34;;;29.89;29.06
21900;BME280;11114;50.658;12.704;2023-06-01T11:22:14;96159.00;;;29.96;28.56
21900;BME280;11114;50.658;12.704;2023-06-01T11:25:04;96159.00;;;29.96;28.81
21900;BME280;11114;50.658;12.704;2023-06-01T11:27:50;96158.31;;;29.66;29.88
21900;BME280;11114;50.658;12.704;2023-06-01T11:30:37;96154.84;;;29.60;29.73
21900;BME280;11114;50.658;12.704;2023-06-01T11:33:25;96146.59;;;29.42;28.70
21900;BME280;11114;50.658;12.704;2023-06-01T11:36:19;96149.66;;;29.01;30.60
21900;BME280;11114;50.658;12.704;2023-06-01T11:39:21;96143.16;;;29.22;30.23
21900;BME280;11114;50.658;12.704;2023-06-01T11:42:11;96140.41;;;29.41;30.79
21900;BME280;11114;50.658;12.704;2023-06-01T11:44:58;96135.09;;;29.80;29.71
21900;BME280;11114;50.658;12.704;2023-06-01T11:47:45;96136.91;;;29.99;28.81
21900;BME280;11114;50.658;12.704;2023-06-01T11:50:32;96130.41;;;30.05;29.25
21900;BME280;11114;50.658;12.704;2023-06-01T11:53:21;96132.06;;;30.01;29.48
21900;BME280;11114;50.658;12.704;2023-06-01T11:56:07;96127.78;;;29.37;28.98
21900;BME280;11114;50.658;12.704;2023-06-01T11:58:59;96132.94;;;29.19;30.83
21900;BME280;11114;50.658;12.704;2023-06-01T12:01:47;96128.56;;;29.32;30.95
21900;BME280;11114;50.658;12.704;2023-06-01T12:04:35;96122.56;;;29.65;29.43
21900;BME280;11114;50.658;12.704;2023-06-01T12:07:22;96121.28;;;30.01;29.20
21900;BME280;11114;50.658;12.704;2023-06-01T12:10:13;96120.69;;;30.09;30.13
21900;BME280;11114;50.658;12.704;2023-06-01T12:13:02;96120.19;;;30.02;30.84
21900;BME280;11114;50.658;12.704;2023-06-01T12:15:51;96121.69;;;30.18;28.83
21900;BME280;11114;50.658;12.704;2023-06-01T12:18:38;96106.44;;;30.37;28.32
21900;BME280;11114;50.658;12.704;2023-06-01T12:21:25;96112.81;;;30.46;28.41
21900;BME280;11114;50.658;12.704;2023-06-01T12:24:11;96106.44;;;30.37;28.44
21900;BME280;11114;50.658;12.704;2023-06-01T12:27:02;96107.09;;;30.24;28.21
21900;BME280;11114;50.658;12.704;2023-06-01T12:29:58;96107.25;;;30.04;28.94
21900;BME280;11114;50.658;12.704;2023-06-01T12:32:45;96101.00;;;30.08;29.27
21900;BME280;11114;50.658;12.704;2023-06-01T12:35:32;96105.38;;;30.00;29.44
21900;BME280;11114;50.658;12.704;2023-06-01T12:38:19;96101.13;;;29.94;29.66
21900;BME280;11114;50.658;12.704;2023-06-01T12:41:11;96094.75;;;29.75;29.14
21900;BME280;11114;50.658;12.704;2023-06-01T12:43:58;96090.66;;;29.44;29.05
21900;BME280;11114;50.658;12.704;2023-06-01T12:46:44;96089.84;;;29.33;30.01
21900;BME280;11114;50.658;12.704;2023-06-01T12:49:31;96090.72;;;29.19;29.21
21900;BME280;11114;50.658;12.704;2023-06-01T12:52:17;96087.63;;;28.82;29.30
21900;BME280;11114;50.658;12.704;2023-06-01T12:55:05;96091.69;;;28.50;30.01
21900;BME280;11114;50.658;12.704;2023-06-01T12:57:53;96089.78;;;28.06;29.72
21900;BME280;11114;50.658;12.704;2023-06-01T13:00:40;96090.50;;;27.56;30.76
21900;BME280;11114;50.658;12.704;2023-06-01T13:03:42;96090.50;;;27.51;30.58
21900;BME280;11114;50.658;12.704;2023-06-01T13:06:29;96083.22;;;27.37;31.05
21900;BME280;11114;50.658;12.704;2023-06-01T13:09:15;96088.31;;;27.48;31.94
21900;BME280;11114;50.658;12.704;2023-06-01T13:12:04;96084.31;;;27.51;32.00
21900;BME280;11114;50.658;12.704;2023-06-01T13:14:51;96081.31;;;27.28;32.18
21900;BME280;11114;50.658;12.704;2023-06-01T13:17:38;96076.75;;;27.23;33.68
21900;BME280;11114;50.658;12.704;2023-06-01T13:20:25;96075.88;;;27.13;32.69
21900;BME280;11114;50.658;12.704;2023-06-01T13:23:14;96071.28;;;27.03;32.63
21900;BME280;11114;50.658;12.704;2023-06-01T13:26:01;96076.34;;;27.00;33.34
21900;BME280;11114;50.658;12.704;2023-06-01T13:28:48;96074.72;;;26.94;33.76
21900;BME280;11114;50.658;12.704;2023-06-01T13:31:35;96071.72;;;26.90;33.70
21900;BME280;11114;50.658;12.704;2023-06-01T13:34:22;96067.47;;;26.94;33.57
21900;BME280;11114;50.658;12.704;2023-06-01T13:37:08;96068.47;;;26.78;33.56
21900;BME280;11114;50.658;12.704;2023-06-01T13:39:55;96067.59;;;26.68;33.75
21900;BME280;11114;50.658;12.704;2023-06-01T13:42:42;96061.97;;;26.64;34.23
21900;BME280;11114;50.658;12.704;2023-06-01T13:45:29;96065.50;;;26.75;34.99
21900;BME280;11114;50.658;12.704;2023-06-01T13:48:15;96055.88;;;26.79;34.65
21900;BME280;11114;50.658;12.704;2023-06-01T13:51:06;96060.13;;;26.70;35.16
21900;BME280;11114;50.658;12.704;2023-06-01T13:53:53;96058.19;;;26.61;35.06
21900;BME280;11114;50.658;12.704;2023-06-01T13:56:40;96054.69;;;26.60;34.22
21900;BME280;11114;50.658;12.704;2023-06-01T13:59:27;96047.19;;;26.57;34.63
21900;BME280;11114;50.658;12.704;2023-06-01T14:02:14;96047.44;;;26.56;34.89
21900;BME280;11114;50.658;12.704;2023-06-01T14:05:01;96040.97;;;26.47;34.29
21900;BME280;11114;50.658;12.704;2023-06-01T14:07:54;96050.78;;;26.36;34.61
21900;BME280;11114;50.658;12.704;2023-06-01T14:10:40;96046.50;;;26.35;34.23
21900;BME280;11114;50.658;12.704;2023-06-01T14:13:27;96048.94;;;26.37;34.07
21900;BME280;11114;50.658;12.704;2023-06-01T14:16:14;96037.66;;;26.35;33.71
21900;BME280;11114;50.658;12.704;2023-06-01T14:19:00;96021.91;;;26.38;33.74
21900;BME280;11114;50.658;12.704;2023-06-01T14:21:46;96033.09;;;26.35;33.54
21900;BME280;11114;50.658;12.704;2023-06-01T14:24:32;96025.63;;;26.32;33.61
21900;BME280;11114;50.658;12.704;2023-06-01T14:27:19;96024.66;;;26.12;33.67
21900;BME280;11114;50.658;12.704;2023-06-01T14:30:07;96021.66;;;26.03;33.18
21900;BME280;11114;50.658;12.704;2023-06-01T14:32:53;96021.66;;;26.03;32.68
21900;BME280;11114;50.658;12.704;2023-06-01T14:35:41;96009.38;;;26.07;32.45
21900;BME280;11114;50.658;12.704;2023-06-01T14:38:28;96008.22;;;25.98;33.05
21900;BME280;11114;50.658;12.704;2023-06-01T14:41:18;96004.38;;;25.84;33.13
21900;BME280;11114;50.658;12.704;2023-06-01T14:44:06;96004.78;;;25.72;33.79
21900;BME280;11114;50.658;12.704;2023-06-01T14:46:52;95998.38;;;25.73;33.93
21900;BME280;11114;50.658;12.704;2023-06-01T14:49:40;96003.25;;;25.76;34.52
21900;BME280;11114;50.658;12.704;2023-06-01T14:52:31;96003.81;;;25.78;34.57
21900;BME280;11114;50.658;12.704;2023-06-01T14:55:18;95991.50;;;25.77;35.27
21900;BME280;11114;50.658;12.704;2023-06-01T14:58:07;95990.44;;;25.78;35.61
21900;BME280;11114;50.658;12.704;2023-06-01T15:00:54;95988.00;;;25.76;35.81
21900;BME280;11114;50.658;12.704;2023-06-01T15:03:42;95989.25;;;25.69;35.14